Time;durP1;ratioP1;P1;durP2;ratioP2;P2;SDS_P1;SDS_P2;PMS_P1;PMS_P2;Temp;Humidity;BMP_temperature;BMP_pressure;BME280_temperature;BME280_humidity;BME280_pressure;Samples;Min_cycle;Max_cycle;Signal;HPM_P1;HPM_P2
2024/03/10 00:02:22;;;;;;;29.27;27.35;;;;;;;-0.99;100.00;101402.09;5027236;28;20060;-71
2024/03/10 00:04:49;;;;;;;27.98;26.08;;;;;;;-0.73;100.00;101404.53;5030446;28;20509;-72
2024/03/10 00:07:18;;;;;;;26.70;25.10;;;;;;;-0.80;100.00;101400.72;5029935;28;20060;-72
2024/03/10 00:09:45;;;;;;;26.95;25.35;;;;;;;-1.18;100.00;101402.66;5029272;28;20054;-70
2024/03/10 00:12:12;;;;;;;27.85;26.10;;;;;;;-1.38;100.00;101398.88;5029225;28;20053;-70
2024/03/10 00:14:40;;;;;;;32.45;29.08;;;;;;;-1.09;100.00;101389.84;5028837;28;20060;-70
2024/03/10 00:17:09;;;;;;;30.00;27.88;;;;;;;-0.94;100.00;101380.88;5029386;28;20045;-70
2024/03/10 00:19:37;;;;;;;28.90;27.13;;;;;;;-0.79;100.00;101389.34;5027044;28;20084;-70
2024/03/10 00:22:04;;;;;;;27.70;26.00;;;;;;;-1.10;100.00;101381.22;5024786;28;20441;-71
2024/03/10 00:24:31;;;;;;;27.40;25.60;;;;;;;-1.34;100.00;101377.81;5024996;28;20042;-71
2024/03/10 00:26:58;;;;;;;31.02;29.02;;;;;;;-1.13;100.00;101378.81;5028821;28;20746;-70
2024/03/10 00:29:25;;;;;;;26.88;25.27;;;;;;;-1.55;100.00;101381.03;5027884;28;20591;-71
2024/03/10 00:31:52;;;;;;;28.08;26.23;;;;;;;-1.24;100.00;101376.19;5024655;28;20838;-71
2024/03/10 00:34:19;;;;;;;28.42;26.70;;;;;;;-1.09;100.00;101375.06;5027333;28;20046;-72
2024/03/10 00:36:48;;;;;;;27.10;25.60;;;;;;;-1.09;100.00;101380.28;5029066;28;20050;-72
2024/03/10 00:39:14;;;;;;;27.77;26.17;;;;;;;-1.17;100.00;101370.41;5028973;28;20057;-72
2024/03/10 00:41:41;;;;;;;28.40;26.70;;;;;;;-1.17;100.00;101380.84;5030181;28;20091;-72
2024/03/10 00:44:08;;;;;;;28.80;27.10;;;;;;;-1.03;100.00;101371.16;5028971;28;20053;-71
2024/03/10 00:46:38;;;;;;;27.33;25.73;;;;;;;-1.14;100.00;101371.13;5029406;28;20049;-72
2024/03/10 00:49:04;;;;;;;27.35;25.70;;;;;;;-1.46;100.00;101363.91;5025062;28;20051;-72
2024/03/10 00:51:31;;;;;;;27.90;26.20;;;;;;;-1.24;100.00;101369.22;5027591;28;20057;-71
2024/03/10 00:54:00;;;;;;;25.50;23.98;;;;;;;-1.34;100.00;101370.81;5026961;28;20758;-71
2024/03/10 00:56:26;;;;;;;26.67;25.08;;;;;;;-1.24;100.00;101369.22;5028391;28;20528;-71
2024/03/10 00:58:53;;;;;;;30.52;28.65;;;;;;;-1.28;100.00;101359.09;5028491;28;20061;-71
2024/03/10 01:01:20;;;;;;;28.00;26.30;;;;;;;-1.10;100.00;101359.53;5023527;28;20074;-70
2024/03/10 01:03:47;;;;;;;28.05;26.45;;;;;;;-1.28;100.00;101356.50;5024649;28;20049;-71
2024/03/10 01:06:14;;;;;;;26.58;24.98;;;;;;;-1.40;100.00;101353.03;5027743;28;20174;-70
2024/03/10 01:08:41;;;;;;;29.40;27.08;;;;;;;-1.72;100.00;101355.38;5026938;28;20439;-70
2024/03/10 01:11:10;;;;;;;29.10;27.10;;;;;;;-1.73;100.00;101346.72;5027362;28;20061;-72
2024/03/10 01:13:37;;;;;;;27.25;24.85;;;;;;;-1.70;100.00;101346.50;5014764;28;20410;-72
2024/03/10 01:16:05;;;;;;;26.60;24.90;;;;;;;-1.56;100.00;101337.69;5028582;28;20056;-72
2024/03/10 01:18:32;;;;;;;27.20;25.50;;;;;;;-1.43;100.00;101343.66;5027703;28;20057;-72
2024/03/10 01:20:59;;;;;;;30.48;28.58;;;;;;;-1.34;100.00;101347.34;5022926;28;20052;-72
2024/03/10 01:23:26;;;;;;;29.85;28.08;;;;;;;-1.24;100.00;101340.53;5028782;28;20038;-71
2024/03/10 01:25:53;;;;;;;29.20;27.15;;;;;;;-1.36;100.00;101335.38;5020262;28;20049;-70
2024/03/10 01:28:21;;;;;;;28.73;26.83;;;;;;;-1.56;100.00;101339.47;5027112;28;20061;-71
2024/03/10 01:30:48;;;;;;;28.13;26.35;;;;;;;-1.56;100.00;101337.69;5025489;28;20518;-72
2024/03/10 01:33:15;;;;;;;28.33;26.67;;;;;;;-1.92;100.00;101331.59;5025335;28;20049;-72
2024/03/10 01:35:42;;;;;;;29.73;27.85;;;;;;;-1.83;100.00;101329.28;5027233;28;20042;-71
2024/03/10 01:38:09;;;;;;;29.10;27.20;;;;;;;-1.41;100.00;101333.13;5025738;28;20060;-70
2024/03/10 01:40:36;;;;;;;28.90;27.02;;;;;;;-1.35;100.00;101337.06;5028877;28;20053;-70
2024/03/10 01:43:04;;;;;;;28.50;26.67;;;;;;;-1.28;100.00;101333.88;5025513;28;20050;-72
2024/03/10 01:45:32;;;;;;;34.22;31.88;;;;;;;-1.14;100.00;101343.28;5026058;28;20092;-72
2024/03/10 01:48:00;;;;;;;32.83;30.92;;;;;;;-1.18;100.00;101339.22;5025089;28;20054;-72
2024/03/10 01:50:30;;;;;;;33.53;31.50;;;;;;;-1.32;100.00;101340.25;5026765;28;20045;-72
2024/03/10 01:53:03;;;;;;;29.67;27.88;;;;;;;-1.45;100.00;101342.94;5028975;28;20129;-72
2024/03/10 01:55:32;;;;;;;27.33;25.80;;;;;;;-1.17;100.00;101333.91;5028193;28;20132;-72
2024/03/10 01:58:05;;;;;;;27.95;26.33;;;;;;;-1.24;100.00;101344.91;5024051;28;20049;-72
2024/03/10 02:00:38;;;;;;;31.90;29.80;;;;;;;-1.34;100.00;101342.16;5023562;28;20053;-72
2024/03/10 02:03:05;;;;;;;29.60;27.63;;;;;;;-1.52;100.00;101343.50;5022846;28;20073;-72
2024/03/10 02:05:33;;;;;;;29.95;28.00;;;;;;;-1.55;100.00;101344.53;5020722;28;20061;-72
2024/03/10 02:08:07;;;;;;;29.52;27.83;;;;;;;-1.46;100.00;101343.88;5026849;28;20056;-72
2024/03/10 02:10:34;;;;;;;31.10;29.30;;;;;;;-1.50;100.00;101349.44;5020283;28;20525;-72
2024/03/10 02:13:01;;;;;;;30.58;28.77;;;;;;;-1.56;100.00;101347.28;5027495;28;20042;-70
2024/03/10 02:15:28;;;;;;;32.25;30.27;;;;;;;-1.40;100.00;101355.63;5028004;28;20041;-72
2024/03/10 02:17:56;;;;;;;29.23;27.42;;;;;;;-1.24;100.00;101353.56;5026352;28;20049;-72
2024/03/10 02:20:26;;;;;;;29.20;27.30;;;;;;;-1.19;100.00;101361.03;5021990;28;20050;-70
2024/03/10 02:22:52;;;;;;;31.90;29.90;;;;;;;-1.48;100.00;101364.03;5021362;28;20111;-70
2024/03/10 02:25:24;;;;;;;34.50;32.30;;;;;;;-1.20;100.00;101365.41;5027061;28;20129;-72
2024/03/10 02:27:54;;;;;;;33.80;31.85;;;;;;;-1.18;100.00;101367.91;5031099;28;20576;-72
2024/03/10 02:30:29;;;;;;;30.67;28.77;;;;;;;-1.13;100.00;101359.75;5030065;28;20497;-70
2024/03/10 02:49:29;;;;;;;35.60;33.50;;;;;;;-2.07;100.00;101351.72;5022734;28;20535;-70
2024/03/10 02:51:56;;;;;;;33.80;31.80;;;;;;;-2.02;100.00;101348.81;5027126;28;20068;-71
2024/03/10 02:54:23;;;;;;;34.45;32.35;;;;;;;-2.03;100.00;101347.13;5030258;28;20053;-71
2024/03/10 02:56:50;;;;;;;36.60;34.45;;;;;;;-1.81;100.00;101346.44;5026998;28;20064;-70
2024/03/10 02:59:18;;;;;;;35.25;33.25;;;;;;;-2.02;100.00;101337.56;5027047;28;20077;-71
2024/03/10 03:01:46;;;;;;;32.00;30.20;;;;;;;-2.01;100.00;101334.03;5029261;28;20060;-70
2024/03/10 03:04:12;;;;;;;32.65;30.75;;;;;;;-2.37;100.00;101340.88;5029227;28;20045;-70
2024/03/10 03:06:39;;;;;;;29.92;28.23;;;;;;;-1.92;100.00;101333.38;5028271;28;20061;-71
2024/03/10 03:09:07;;;;;;;38.25;35.85;;;;;;;-1.93;100.00;101329.94;5029403;28;20049;-71
2024/03/10 03:11:34;;;;;;;33.90;32.00;;;;;;;-2.08;100.00;101321.44;5028322;28;20124;-71
2024/03/10 03:14:02;;;;;;;33.42;31.50;;;;;;;-2.30;100.00;101323.88;5023126;28;20200;-70
2024/03/10 03:16:30;;;;;;;32.53;30.52;;;;;;;-2.66;100.00;101317.72;5029220;28;20806;-70
2024/03/10 03:18:58;;;;;;;33.80;31.70;;;;;;;-2.72;100.00;101330.28;5029996;28;20050;-70
2024/03/10 03:21:25;;;;;;;34.85;32.30;;;;;;;-2.46;100.00;101333.72;5024455;28;20053;-70
2024/03/10 03:23:53;;;;;;;32.58;30.05;;;;;;;-2.38;100.00;101341.81;5026804;28;20049;-70
2024/03/10 03:26:20;;;;;;;30.88;29.08;;;;;;;-2.41;100.00;101329.84;5028106;28;20045;-72
2024/03/10 03:28:49;;;;;;;30.65;28.77;;;;;;;-2.36;100.00;101346.00;5029722;28;20076;-71
2024/03/10 03:31:17;;;;;;;30.63;28.73;;;;;;;-2.11;100.00;101344.25;5029044;28;20060;-71
2024/03/10 03:33:45;;;;;;;32.15;30.25;;;;;;;-2.21;100.00;101344.09;5028764;28;20045;-70
2024/03/10 03:36:14;;;;;;;32.90;30.55;;;;;;;-2.13;100.00;101343.53;5029929;28;20508;-72
2024/03/10 03:38:43;;;;;;;29.35;27.60;;;;;;;-2.06;100.00;101344.75;5029083;28;20473;-70
2024/03/10 03:41:10;;;;;;;30.35;28.63;;;;;;;-1.99;100.00;101340.78;5029371;28;20053;-70
2024/03/10 03:43:37;;;;;;;34.17;32.05;;;;;;;-1.78;100.00;101342.81;5024895;28;20053;-70
2024/03/10 03:46:05;;;;;;;33.65;31.27;;;;;;;-1.80;100.00;101348.09;5029296;28;20058;-70
2024/03/10 03:48:32;;;;;;;31.25;28.85;;;;;;;-2.40;100.00;101335.88;5028212;28;20516;-70
2024/03/10 03:51:00;;;;;;;34.80;32.47;;;;;;;-2.39;100.00;101341.00;5029095;28;20053;-70
2024/03/10 03:53:27;;;;;;;33.40;31.30;;;;;;;-2.11;100.00;101341.66;5026193;28;20058;-70
2024/03/10 03:55:54;;;;;;;28.17;26.38;;;;;;;-1.93;100.00;101337.75;5026334;28;20049;-72
2024/03/10 03:58:21;;;;;;;30.08;28.27;;;;;;;-1.91;100.00;101333.25;5028735;28;20509;-70
2024/03/10 04:00:48;;;;;;;29.35;27.55;;;;;;;-2.14;100.00;101334.91;5029217;28;20084;-70
2024/03/10 04:03:15;;;;;;;30.20;28.35;;;;;;;-2.18;100.00;101336.06;5027483;28;20448;-70
2024/03/10 04:05:42;;;;;;;28.85;27.08;;;;;;;-2.26;100.00;101327.13;5029134;28;20136;-70
2024/03/10 04:08:12;;;;;;;30.10;28.30;;;;;;;-2.36;100.00;101326.91;5028145;28;20501;-70
2024/03/10 04:10:39;;;;;;;30.65;28.85;;;;;;;-2.54;100.00;101327.28;5024174;28;20060;-70
2024/03/10 04:13:06;;;;;;;30.95;29.08;;;;;;;-2.89;100.00;101324.47;5027892;28;20073;-70
2024/03/10 04:15:35;;;;;;;29.80;28.10;;;;;;;-2.79;100.00;101330.72;5028740;28;20045;-70
2024/03/10 04:18:04;;;;;;;32.67;30.67;;;;;;;-2.46;100.00;101326.72;5030436;28;20521;-72
2024/03/10 04:20:38;;;;;;;30.95;28.60;;;;;;;-2.41;100.00;101322.03;5022784;28;20407;-72
2024/03/10 04:23:05;;;;;;;28.63;26.10;;;;;;;-2.60;100.00;101329.47;5021877;28;20054;-70
2024/03/10 04:25:34;;;;;;;28.42;26.42;;;;;;;-2.65;100.00;101315.94;5026582;28;20056;-70
2024/03/10 04:28:02;;;;;;;35.72;33.08;;;;;;;-2.68;100.00;101321.38;5023328;28;20057;-70
2024/03/10 04:30:29;;;;;;;30.70;28.60;;;;;;;-2.58;100.00;101310.19;5028145;28;20127;-72
2024/03/10 04:32:55;;;;;;;34.17;31.88;;;;;;;-2.41;100.00;101314.25;5028989;28;20433;-72
2024/03/10 04:35:24;;;;;;;31.35;29.45;;;;;;;-2.97;100.00;101313.75;5029493;28;20049;-72
2024/03/10 04:37:50;;;;;;;30.52;27.98;;;;;;;-2.71;100.00;101322.41;5029463;28;20053;-72
2024/03/10 04:40:18;;;;;;;27.40;25.40;;;;;;;-2.53;100.00;101315.94;5022516;28;20058;-72
2024/03/10 04:42:46;;;;;;;30.05;27.75;;;;;;;-2.33;100.00;101321.50;5028199;28;20060;-71
2024/03/10 04:45:15;;;;;;;26.73;24.70;;;;;;;-2.33;100.00;101327.56;5025682;28;20516;-72
2024/03/10 04:47:43;;;;;;;30.95;28.05;;;;;;;-2.19;100.00;101328.34;5028819;28;20884;-71
2024/03/10 04:50:10;;;;;;;32.83;30.90;;;;;;;-2.31;100.00;101328.25;5028705;28;20057;-72
2024/03/10 04:52:37;;;;;;;32.60;30.90;;;;;;;-2.16;100.00;101334.16;5029268;28;20053;-72
2024/03/10 04:55:05;;;;;;;34.72;32.30;;;;;;;-2.17;100.00;101336.88;5025847;28;20144;-70
2024/03/10 04:57:32;;;;;;;27.38;25.67;;;;;;;-2.29;100.00;101340.34;5025032;28;20057;-70
2024/03/10 05:00:01;;;;;;;26.70;24.90;;;;;;;-2.24;100.00;101348.66;5026340;28;20057;-71
2024/03/10 05:02:30;;;;;;;24.80;23.20;;;;;;;-2.08;100.00;101346.66;5027331;28;20073;-70
2024/03/10 05:04:57;;;;;;;27.60;25.85;;;;;;;-2.22;100.00;101357.19;5025825;28;20103;-71
2024/03/10 05:07:23;;;;;;;29.85;27.85;;;;;;;-1.95;100.00;101355.25;5026440;28;20053;-70
2024/03/10 05:09:50;;;;;;;28.48;26.73;;;;;;;-1.73;100.00;101362.34;5024724;28;20053;-70
2024/03/10 05:12:18;;;;;;;28.70;26.80;;;;;;;-1.63;100.00;101359.94;5027554;28;20049;-70
2024/03/10 05:14:45;;;;;;;31.25;29.17;;;;;;;-1.77;100.00;101353.09;5026700;28;20076;-70
2024/03/10 05:17:13;;;;;;;31.15;29.05;;;;;;;-1.61;100.00;101358.84;5027812;28;20069;-70
2024/03/10 05:19:42;;;;;;;27.20;25.48;;;;;;;-1.39;100.00;101359.91;5028153;28;20172;-70
2024/03/10 05:22:10;;;;;;;30.23;28.13;;;;;;;-1.21;100.00;101365.53;5021930;28;20045;-70
2024/03/10 05:24:41;;;;;;;33.83;28.90;;;;;;;-1.22;100.00;101363.88;5020108;28;20081;-72
2024/03/10 05:27:09;;;;;;;29.88;27.90;;;;;;;-1.33;100.00;101350.78;5027927;28;20095;-72
2024/03/10 05:29:37;;;;;;;29.58;27.58;;;;;;;-1.23;100.00;101352.63;5024364;28;20057;-72
2024/03/10 05:32:04;;;;;;;27.15;25.35;;;;;;;-0.94;100.00;101352.19;5022969;28;20041;-72
2024/03/10 05:34:35;;;;;;;31.65;29.55;;;;;;;-0.82;100.00;101361.72;5029171;28;20041;-72
2024/03/10 05:37:02;;;;;;;29.10;27.20;;;;;;;-0.79;100.00;101347.59;5029517;28;20091;-72
2024/03/10 05:39:29;;;;;;;29.52;27.52;;;;;;;-0.32;100.00;101359.63;5028546;28;20045;-72
2024/03/10 05:42:00;;;;;;;33.22;30.48;;;;;;;-0.03;100.00;101362.56;5028004;28;20054;-72
2024/03/10 05:44:27;;;;;;;31.02;28.80;;;;;;;0.11;100.00;101366.69;5025303;28;20054;-72
2024/03/10 05:46:53;;;;;;;32.42;30.08;;;;;;;0.33;100.00;101357.94;5025226;28;20096;-72
2024/03/10 05:49:20;;;;;;;31.88;29.55;;;;;;;0.50;100.00;101364.44;5027126;28;20049;-72
2024/03/10 05:51:49;;;;;;;36.50;33.80;;;;;;;0.81;100.00;101362.75;5028779;28;20136;-72
2024/03/10 05:54:16;;;;;;;33.40;31.00;;;;;;;1.00;100.00;101358.59;5026906;28;20068;-72
2024/03/10 05:56:43;;;;;;;32.95;30.42;;;;;;;0.88;100.00;101358.69;5027244;28;20061;-72
2024/03/10 05:59:10;;;;;;;33.67;31.15;;;;;;;1.03;100.00;101361.81;5022190;28;20085;-72
2024/03/10 06:01:39;;;;;;;33.72;31.38;;;;;;;0.86;100.00;101357.16;5025117;28;20449;-72
2024/03/10 06:04:06;;;;;;;32.97;30.63;;;;;;;0.90;100.00;101361.16;5029295;28;20056;-72
2024/03/10 06:06:33;;;;;;;33.55;31.33;;;;;;;1.01;100.00;101365.50;5028252;28;20744;-72
2024/03/10 06:09:05;;;;;;;33.78;31.25;;;;;;;1.35;100.00;101366.13;5030539;28;20068;-70
2024/03/10 06:11:32;;;;;;;33.67;31.47;;;;;;;1.49;100.00;101359.72;5029672;28;20061;-70
2024/03/10 06:13:58;;;;;;;31.95;29.85;;;;;;;1.58;100.00;101351.06;5029443;28;20890;-70
2024/03/10 06:16:25;;;;;;;32.17;29.95;;;;;;;1.68;100.00;101353.72;5028182;28;20046;-70
2024/03/10 06:27:19;;;;;;;32.72;30.42;;;;;;;3.98;100.00;101357.22;5018279;28;20071;-70
2024/03/10 06:29:46;;;;;;;30.50;28.40;;;;;;;3.98;100.00;101357.22;5022137;28;20584;-71
2024/03/10 06:32:14;;;;;;;32.05;29.75;;;;;;;4.03;100.00;101344.47;5024458;28;20052;-70
2024/03/10 06:34:43;;;;;;;32.92;30.60;;;;;;;4.42;100.00;101353.88;5025935;28;20068;-70
2024/03/10 06:37:09;;;;;;;36.88;33.97;;;;;;;4.81;100.00;101364.91;5026148;28;20055;-70
2024/03/10 06:39:38;;;;;;;35.65;32.47;;;;;;;4.73;100.00;101352.53;5028680;28;20064;-70
2024/03/10 06:42:07;;;;;;;32.65;30.35;;;;;;;4.78;100.00;101359.97;5027943;28;20064;-70
2024/03/10 06:44:35;;;;;;;32.05;29.83;;;;;;;4.64;100.00;101366.59;5025796;28;20647;-70
2024/03/10 06:47:02;;;;;;;32.10;29.90;;;;;;;5.15;100.00;101365.03;5028413;28;20741;-70
2024/03/10 06:49:28;;;;;;;33.78;31.58;;;;;;;4.95;100.00;101369.66;5023647;28;20433;-70
2024/03/10 06:51:57;;;;;;;33.97;31.77;;;;;;;4.95;100.00;101371.44;5027773;28;20057;-71
2024/03/10 06:54:24;;;;;;;30.42;28.42;;;;;;;5.09;100.00;101372.72;5028839;28;20056;-70
2024/03/10 06:56:52;;;;;;;33.15;31.05;;;;;;;4.86;100.00;101382.91;5025301;28;20051;-71
2024/03/10 06:59:22;;;;;;;35.65;33.15;;;;;;;5.44;100.00;101380.50;5027124;28;20640;-70
2024/03/10 07:01:49;;;;;;;37.05;34.53;;;;;;;5.56;100.00;101388.16;5028444;28;20489;-70
2024/03/10 07:04:16;;;;;;;33.45;31.00;;;;;;;5.70;100.00;101377.84;5028680;28;20060;-70
2024/03/10 07:06:43;;;;;;;34.70;32.60;;;;;;;5.76;100.00;101391.38;5027263;28;20061;-70
2024/03/10 07:09:10;;;;;;;35.25;32.95;;;;;;;5.73;100.00;101387.25;5029036;28;20428;-71
2024/03/10 07:11:39;;;;;;;31.35;29.35;;;;;;;6.06;100.00;101395.34;5028412;28;20088;-70
2024/03/10 07:14:07;;;;;;;28.92;26.95;;;;;;;6.23;100.00;101398.81;5022525;28;20085;-70
2024/03/10 07:16:34;;;;;;;29.33;27.35;;;;;;;6.56;100.00;101403.19;5030189;28;20064;-73
2024/03/10 07:19:01;;;;;;;30.00;28.00;;;;;;;6.82;100.00;101400.41;5030599;28;20126;-72
2024/03/10 07:21:28;;;;;;;30.40;28.20;;;;;;;6.97;100.00;101403.22;5027523;28;20052;-72
2024/03/10 07:23:54;;;;;;;31.55;29.45;;;;;;;7.08;100.00;101405.53;5024852;28;20064;-73
2024/03/10 07:26:23;;;;;;;31.13;29.13;;;;;;;7.25;100.00;101402.88;5030441;28;20045;-72
2024/03/10 07:28:50;;;;;;;30.40;28.50;;;;;;;7.44;100.00;101402.50;5031493;28;20042;-72
2024/03/10 07:31:19;;;;;;;32.00;29.90;;;;;;;7.36;100.00;101401.72;5026191;28;20440;-73
2024/03/10 07:33:45;;;;;;;31.80;29.80;;;;;;;7.67;100.00;101407.91;5030582;28;20065;-73
2024/03/10 07:36:12;;;;;;;30.02;28.02;;;;;;;7.68;100.00;101406.09;5025777;28;20041;-73
2024/03/10 07:38:40;;;;;;;28.20;26.40;;;;;;;7.64;100.00;101396.84;5030920;28;20064;-73
2024/03/10 07:41:08;;;;;;;30.40;28.17;;;;;;;7.56;100.00;101395.91;5028860;28;20045;-73
2024/03/10 07:43:35;;;;;;;26.63;24.85;;;;;;;7.82;100.00;101389.50;5028295;28;20179;-73
2024/03/10 07:46:05;;;;;;;29.60;27.67;;;;;;;7.81;100.00;101387.88;5029523;28;20041;-73
2024/03/10 07:48:33;;;;;;;29.20;27.40;;;;;;;8.02;100.00;101388.13;5019492;28;20064;-70
2024/03/10 07:51:00;;;;;;;27.85;26.05;;;;;;;7.96;100.00;101380.06;5029460;28;20046;-70
2024/03/10 07:53:27;;;;;;;29.30;27.40;;;;;;;8.20;100.00;101385.22;5026715;28;20045;-70
2024/03/10 07:55:54;;;;;;;28.05;26.35;;;;;;;8.10;100.00;101389.06;5023581;28;20049;-71
2024/03/10 07:58:21;;;;;;;29.38;27.58;;;;;;;8.21;100.00;101391.31;5027075;28;20052;-70
2024/03/10 08:00:48;;;;;;;28.92;27.13;;;;;;;8.31;100.00;101391.09;5024952;28;20111;-71
2024/03/10 08:03:16;;;;;;;29.95;28.02;;;;;;;8.35;100.00;101397.69;5025503;28;20052;-71
2024/03/10 08:05:44;;;;;;;28.50;26.60;;;;;;;8.36;100.00;101396.69;5024156;28;20057;-71
2024/03/10 08:08:11;;;;;;;27.40;25.63;;;;;;;8.71;100.00;101396.16;5027329;28;20046;-73
2024/03/10 08:10:38;;;;;;;28.83;26.92;;;;;;;9.01;100.00;101390.13;5029925;28;20075;-72
2024/03/10 08:13:05;;;;;;;27.38;25.58;;;;;;;9.24;100.00;101377.66;5029874;28;20056;-73
2024/03/10 08:15:32;;;;;;;30.38;28.10;;;;;;;8.98;100.00;101382.53;5029976;28;20053;-73
2024/03/10 08:17:59;;;;;;;30.48;28.48;;;;;;;8.90;100.00;101362.25;5027838;28;20045;-73
2024/03/10 08:20:27;;;;;;;28.92;27.02;;;;;;;9.08;100.00;101359.28;5028622;28;20063;-73
2024/03/10 08:22:55;;;;;;;29.05;26.95;;;;;;;9.07;100.00;101365.56;5015114;28;20049;-73
2024/03/10 08:25:22;;;;;;;29.10;27.30;;;;;;;9.44;100.00;101364.69;5028934;28;20055;-73
2024/03/10 08:27:52;;;;;;;30.80;28.65;;;;;;;9.69;100.00;101354.63;5028580;28;20084;-73
2024/03/10 08:30:19;;;;;;;29.95;27.85;;;;;;;9.75;100.00;101350.41;5027604;28;20050;-73
2024/03/10 08:32:52;;;;;;;33.20;30.70;;;;;;;9.61;100.00;101366.13;5028588;28;20497;-73
2024/03/10 08:35:20;;;;;;;33.15;30.88;;;;;;;9.94;100.00;101354.31;5029514;28;20433;-73
2024/03/10 08:37:47;;;;;;;29.45;26.65;;;;;;;10.41;100.00;101360.97;5027135;28;20484;-71
2024/03/10 08:40:17;;;;;;;29.33;27.17;;;;;;;10.23;100.00;101351.59;5024105;28;20049;-71
2024/03/10 08:42:45;;;;;;;28.42;26.38;;;;;;;10.65;100.00;101354.47;5026638;28;20064;-71
2024/03/10 08:45:13;;;;;;;29.23;27.33;;;;;;;10.73;100.00;101354.34;5027518;28;20049;-71
2024/03/10 08:47:40;;;;;;;29.73;27.42;;;;;;;11.15;100.00;101358.75;5026430;28;20053;-71
2024/03/10 08:50:09;;;;;;;30.52;28.42;;;;;;;11.43;100.00;101348.09;5026368;28;20052;-71
2024/03/10 08:52:37;;;;;;;29.88;27.77;;;;;;;11.06;100.00;101348.47;5027140;28;20041;-73
2024/03/10 08:55:04;;;;;;;40.80;38.20;;;;;;;11.98;100.00;101342.88;5025547;28;20061;-72
2024/03/10 08:57:33;;;;;;;28.65;26.65;;;;;;;12.47;100.00;101341.75;5021544;28;20068;-71
2024/03/10 09:00:00;;;;;;;34.80;32.55;;;;;;;12.70;100.00;101346.66;5024125;28;20473;-71
2024/03/10 09:02:28;;;;;;;41.42;38.83;;;;;;;12.93;100.00;101348.13;5024718;28;20049;-71
2024/03/10 09:04:54;;;;;;;46.67;43.88;;;;;;;13.00;100.00;101336.41;5024346;28;20437;-71
2024/03/10 09:07:21;;;;;;;33.38;30.90;;;;;;;13.47;100.00;101336.34;5026931;28;20064;-71
2024/03/10 09:09:49;;;;;;;42.25;39.55;;;;;;;14.01;100.00;101335.13;5027201;28;20053;-71
2024/03/10 09:12:17;;;;;;;34.47;32.08;;;;;;;14.25;100.00;101335.38;5022771;28;20061;-71
2024/03/10 09:14:45;;;;;;;44.88;41.92;;;;;;;14.18;100.00;101333.56;5024328;28;20045;-71
2024/03/10 09:17:12;;;;;;;49.58;46.47;;;;;;;14.12;100.00;101329.06;5026503;28;20052;-71
2024/03/10 09:19:40;;;;;;;45.35;42.40;;;;;;;15.16;100.00;101334.06;5026095;28;20057;-71
2024/03/10 09:22:08;;;;;;;31.70;29.30;;;;;;;14.43;100.00;101327.44;5023384;28;20057;-71
2024/03/10 09:24:34;;;;;;;38.83;36.17;;;;;;;13.85;100.00;101325.72;5021275;28;20063;-71
2024/03/10 09:27:03;;;;;;;43.80;40.95;;;;;;;14.57;100.00;101321.00;5028686;28;20520;-71
2024/03/10 09:29:31;;;;;;;46.65;43.55;;;;;;;14.33;100.00;101317.22;5024935;28;20057;-70
2024/03/10 09:32:01;;;;;;;36.50;33.80;;;;;;;14.46;100.00;101318.16;5025434;28;20049;-71
2024/03/10 09:34:28;;;;;;;30.67;28.17;;;;;;;14.84;100.00;101321.59;5024463;28;20049;-71
2024/03/10 09:36:55;;;;;;;33.70;31.23;;;;;;;14.16;100.00;101308.94;5026893;28;20068;-70
2024/03/10 09:39:23;;;;;;;32.50;30.10;;;;;;;13.34;100.00;101307.03;5026210;28;20059;-71
2024/03/10 09:41:51;;;;;;;36.80;34.10;;;;;;;13.23;100.00;101311.97;5025629;28;20103;-70
2024/03/10 09:44:18;;;;;;;42.22;39.45;;;;;;;13.14;100.00;101307.88;5023485;28;20054;-71
2024/03/10 09:46:48;;;;;;;50.65;47.53;;;;;;;12.60;100.00;101317.75;5024679;28;20107;-70
2024/03/10 09:49:18;;;;;;;48.47;45.50;;;;;;;13.10;100.00;101313.81;5026412;28;20080;-71
2024/03/10 09:51:49;;;;;;;33.38;30.88;;;;;;;13.74;100.00;101311.22;5025896;28;20092;-70
2024/03/10 09:54:17;;;;;;;36.55;34.05;;;;;;;13.80;100.00;101316.72;5025798;28;20057;-71
2024/03/10 09:56:44;;;;;;;37.33;34.80;;;;;;;13.60;100.00;101304.28;5024207;28;20053;-70
2024/03/10 09:59:18;;;;;;;36.58;34.03;;;;;;;14.53;100.00;101305.63;5024069;28;20151;-70
2024/03/10 10:01:47;;;;;;;37.67;35.08;;;;;;;13.17;100.00;101306.66;5026323;28;20529;-70
2024/03/10 10:04:19;;;;;;;51.90;48.70;;;;;;;14.16;100.00;101300.91;5022915;28;20049;-71
2024/03/10 10:06:49;;;;;;;51.35;48.25;;;;;;;12.86;100.00;101302.81;5024528;28;20152;-71
2024/03/10 10:09:17;;;;;;;52.00;48.85;;;;;;;13.13;100.00;101306.25;5024684;28;20057;-71
2024/03/10 10:11:46;;;;;;;51.60;48.38;;;;;;;13.69;100.00;101300.34;5027936;28;20620;-71
2024/03/10 10:14:15;;;;;;;46.85;43.85;;;;;;;14.75;100.00;101304.19;5019292;28;20057;-71
2024/03/10 10:16:55;;;;;;;48.95;45.85;;;;;;;14.98;100.00;101297.41;5026614;28;20053;-71
2024/03/10 10:19:25;;;;;;;34.95;32.38;;;;;;;13.65;100.00;101287.66;5024852;28;20499;-71
2024/03/10 10:21:53;;;;;;;34.65;32.15;;;;;;;13.32;100.00;101293.91;5025196;28;20057;-70
2024/03/10 10:24:20;;;;;;;34.03;31.55;;;;;;;13.41;100.00;101283.84;5021401;28;20046;-71
2024/03/10 10:26:59;;;;;;;38.25;35.50;;;;;;;14.61;100.00;101278.59;5024382;28;20049;-71
2024/03/10 10:29:27;;;;;;;41.47;38.88;;;;;;;12.86;100.00;101280.63;5022591;28;20054;-71
2024/03/10 10:31:58;;;;;;;44.80;41.90;;;;;;;13.82;100.00;101275.41;5026721;28;20045;-71
2024/03/10 10:34:27;;;;;;;45.00;41.92;;;;;;;13.73;100.00;101269.50;5023182;28;20057;-71
2024/03/10 10:36:55;;;;;;;45.65;42.65;;;;;;;14.89;100.00;101268.28;5025941;28;20441;-71
2024/03/10 10:39:26;;;;;;;38.67;35.88;;;;;;;14.79;100.00;101269.81;5025968;28;20717;-71
2024/03/10 10:41:55;;;;;;;41.72;38.83;;;;;;;14.92;100.00;101264.34;5025239;28;20056;-71
2024/03/10 10:44:22;;;;;;;39.72;36.83;;;;;;;15.32;100.00;101256.69;5026440;28;20049;-71
2024/03/10 10:46:50;;;;;;;40.75;37.85;;;;;;;15.23;100.00;101250.00;5026727;28;20103;-71
2024/03/10 10:49:19;;;;;;;34.22;31.42;;;;;;;14.19;100.00;101248.88;5028302;28;20057;-71
2024/03/10 10:51:50;;;;;;;33.38;30.88;;;;;;;14.04;100.00;101254.56;5026579;28;20103;-71
2024/03/10 10:54:19;;;;;;;45.67;42.78;;;;;;;15.86;100.00;101253.38;5028756;28;20053;-71
2024/03/10 10:56:54;;;;;;;33.10;30.60;;;;;;;15.65;100.00;101249.31;5028790;28;20053;-71
2024/03/10 10:59:24;;;;;;;37.33;34.53;;;;;;;15.08;100.00;101253.06;5025487;28;20841;-71
2024/03/10 11:01:55;;;;;;;37.63;35.03;;;;;;;13.37;100.00;101240.72;5029041;28;20042;-71
2024/03/10 11:04:25;;;;;;;39.35;36.75;;;;;;;13.24;100.00;101246.09;5027534;28;20061;-71
2024/03/10 11:06:56;;;;;;;38.10;35.42;;;;;;;14.40;100.00;101237.84;5026893;28;20499;-71
2024/03/10 11:09:28;;;;;;;37.83;35.13;;;;;;;14.70;100.00;101233.69;5028362;28;20061;-71
2024/03/10 11:11:55;;;;;;;38.38;35.78;;;;;;;14.05;100.00;101234.81;5027797;28;20434;-71
2024/03/10 11:14:28;;;;;;;39.97;37.20;;;;;;;13.79;100.00;101229.66;5028746;28;20065;-71
2024/03/10 11:17:12;;;;;;;40.60;37.90;;;;;;;14.29;100.00;101243.91;5028627;28;20050;-71
2024/03/10 11:19:40;;;;;;;37.10;34.50;;;;;;;14.90;100.00;101237.00;5026953;28;20053;-71
2024/03/10 11:22:10;;;;;;;37.88;35.28;;;;;;;14.96;100.00;101236.13;5029430;28;20049;-71
2024/03/10 11:24:37;;;;;;;36.30;33.80;;;;;;;14.93;100.00;101230.41;5024070;28;20141;-70
2024/03/10 11:27:19;;;;;;;38.25;35.00;;;;;;;14.38;100.00;101228.41;5022509;28;20107;-71
2024/03/10 11:29:47;;;;;;;35.95;33.55;;;;;;;14.08;100.00;101223.72;5023775;28;20088;-71
2024/03/10 11:32:33;;;;;;;36.78;34.28;;;;;;;13.87;100.00;101218.72;5028511;28;20425;-68
2024/03/10 11:35:07;;;;;;;36.47;33.97;;;;;;;14.01;100.00;101211.41;5024847;28;20056;-70